sensor_id;sensor_type;location;lat;lon;timestamp;pressure;altitude;pressure_sealevel;temperature;humidity
80911;BME280;70359;51.420;7.032;2023-10-19T00:01:38;979.7422;;;13.86;67.70215
80911;BME280;70359;51.420;7.032;2023-10-19T00:04:03;979.7704;;;13.94;67.55371
80911;BME280;70359;51.420;7.032;2023-10-19T00:06:28;979.6891;;;14;67.58789
80911;BME280;70359;51.420;7.032;2023-10-19T00:08:53;979.7964;;;14.04;67.35449
80911;BME280;70359;51.420;7.032;2023-10-19T00:11:18;979.7838;;;14.01;67.72461
80911;BME280;70359;51.420;7.032;2023-10-19T00:13:43;979.7683;;;14.08;67.78125
80911;BME280;70359;51.420;7.032;2023-10-19T00:16:08;979.7773;;;14.05;67.80957
80911;BME280;70359;51.420;7.032;2023-10-19T00:18:33;979.7468;;;14.12;67.62695
80911;BME280;70359;51.420;7.032;2023-10-19T00:20:58;979.7078;;;14.08;67.98633
80911;BME280;70359;51.420;7.032;2023-10-19T00:23:23;979.6099;;;14.17;67.71484
80911;BME280;70359;51.420;7.032;2023-10-19T00:25:48;979.5881;;;14.15;67.89453
80911;BME280;70359;51.420;7.032;2023-10-19T00:28:13;979.6713;;;14.18;67.89844
80911;BME280;70359;51.420;7.032;2023-10-19T00:30:38;979.6053;;;14.08;68.33887
80911;BME280;70359;51.420;7.032;2023-10-19T00:33:03;979.5111;;;14.15;68.19141
80911;BME280;70359;51.420;7.032;2023-10-19T00:35:28;979.5366;;;14.13;68.22168
80911;BME280;70359;51.420;7.032;2023-10-19T00:37:53;979.633;;;14.24;67.9541
80911;BME280;70359;51.420;7.032;2023-10-19T00:40:18;979.6051;;;14.25;68.00098
80911;BME280;70359;51.420;7.032;2023-10-19T00:42:43;979.6501;;;14.32;67.7959
80911;BME280;70359;51.420;7.032;2023-10-19T00:45:09;979.5921;;;14.38;67.61035
80911;BME280;70359;51.420;7.032;2023-10-19T00:47:33;979.5908;;;14.3;67.99609
80911;BME280;70359;51.420;7.032;2023-10-19T00:49:58;979.5549;;;14.32;67.9082
80911;BME280;70359;51.420;7.032;2023-10-19T00:52:23;979.5136;;;14.37;67.7793
80911;BME280;70359;51.420;7.032;2023-10-19T00:54:48;979.5947;;;14.42;67.58105
80911;BME280;70359;51.420;7.032;2023-10-19T00:57:13;979.5569;;;14.37;67.91602
80911;BME280;70359;51.420;7.032;2023-10-19T00:59:39;979.478;;;14.46;67.58984
80911;BME280;70359;51.420;7.032;2023-10-19T01:02:03;979.4363;;;14.47;67.63574
80911;BME280;70359;51.420;7.032;2023-10-19T01:04:28;979.438;;;14.55;67.38574
80911;BME280;70359;51.420;7.032;2023-10-19T01:06:53;979.4413;;;14.54;67.5332
80911;BME280;70359;51.420;7.032;2023-10-19T01:09:18;979.4436;;;14.54;67.48828
80911;BME280;70359;51.420;7.032;2023-10-19T01:11:43;979.499;;;14.53;67.54102
80911;BME280;70359;51.420;7.032;2023-10-19T01:16:33;979.4263;;;14.51;67.37988
80911;BME280;70359;51.420;7.032;2023-10-19T01:18:58;979.443;;;14.55;67.64746
80911;BME280;70359;51.420;7.032;2023-10-19T01:21:26;979.4383;;;14.6;67.33496
80911;BME280;70359;51.420;7.032;2023-10-19T01:23:49;979.4725;;;14.69;67.16797
80911;BME280;70359;51.420;7.032;2023-10-19T01:26:13;979.4623;;;14.66;67.27832
80911;BME280;70359;51.420;7.032;2023-10-19T01:28:38;979.4495;;;14.76;67.17871
80911;BME280;70359;51.420;7.032;2023-10-19T01:31:03;979.3763;;;14.74;67.4043
80911;BME280;70359;51.420;7.032;2023-10-19T01:33:28;979.3228;;;14.84;67.38379
80911;BME280;70359;51.420;7.032;2023-10-19T01:35:53;979.3231;;;14.78;67.88867
80911;BME280;70359;51.420;7.032;2023-10-19T01:38:18;979.2516;;;14.78;68.09375
80911;BME280;70359;51.420;7.032;2023-10-19T01:40:43;979.3619;;;14.74;68.45313
80911;BME280;70359;51.420;7.032;2023-10-19T01:43:09;979.3353;;;14.85;68.11621
80911;BME280;70359;51.420;7.032;2023-10-19T01:45:33;979.299;;;14.86;68.15039
80911;BME280;70359;51.420;7.032;2023-10-19T01:47:58;979.3531;;;14.93;68.09277
80911;BME280;70359;51.420;7.032;2023-10-19T01:50:23;979.3006;;;14.9;68.35059
80911;BME280;70359;51.420;7.032;2023-10-19T01:52:49;979.3181;;;14.87;68.67773
80911;BME280;70359;51.420;7.032;2023-10-19T01:55:13;979.3186;;;14.97;68.24805
80911;BME280;70359;51.420;7.032;2023-10-19T01:57:38;979.2512;;;14.96;68.37207
80911;BME280;70359;51.420;7.032;2023-10-19T02:00:04;979.2853;;;15.03;68.14355
80911;BME280;70359;51.420;7.032;2023-10-19T02:02:28;979.3047;;;15.02;68.11816
80911;BME280;70359;51.420;7.032;2023-10-19T02:04:53;979.2336;;;15.1;67.85742
80911;BME280;70359;51.420;7.032;2023-10-19T02:07:18;979.2564;;;15.04;68.06445
80911;BME280;70359;51.420;7.032;2023-10-19T02:09:43;979.2015;;;14.99;68.19434
80911;BME280;70359;51.420;7.032;2023-10-19T02:12:08;979.1998;;;15.03;68.08691
80911;BME280;70359;51.420;7.032;2023-10-19T02:14:33;979.2428;;;15.11;67.88086
80911;BME280;70359;51.420;7.032;2023-10-19T02:16:59;979.1864;;;15.11;68.17871
80911;BME280;70359;51.420;7.032;2023-10-19T02:19:24;979.1661;;;15.17;68.0166
80911;BME280;70359;51.420;7.032;2023-10-19T02:21:49;979.1635;;;15.13;68.21582
80911;BME280;70359;51.420;7.032;2023-10-19T02:24:13;979.1139;;;15.17;68.12891
80911;BME280;70359;51.420;7.032;2023-10-19T02:26:38;979.1178;;;15.17;68.17578
80911;BME280;70359;51.420;7.032;2023-10-19T02:29:03;979.1418;;;15.24;67.93555
80911;BME280;70359;51.420;7.032;2023-10-19T02:31:28;979.1644;;;15.15;68.19629
80911;BME280;70359;51.420;7.032;2023-10-19T02:33:54;979.133;;;15.18;68.09863
80911;BME280;70359;51.420;7.032;2023-10-19T02:36:19;979.1356;;;15.11;68.28027
80911;BME280;70359;51.420;7.032;2023-10-19T02:38:43;979.0912;;;15.25;67.69629
80911;BME280;70359;51.420;7.032;2023-10-19T02:41:08;979.0958;;;15.2;67.83887
80911;BME280;70359;51.420;7.032;2023-10-19T02:43:34;979.0344;;;15.27;67.38086
80911;BME280;70359;51.420;7.032;2023-10-19T02:45:58;979.0147;;;15.23;67.5
80911;BME280;70359;51.420;7.032;2023-10-19T02:48:23;979.0059;;;15.31;67.14844
80911;BME280;70359;51.420;7.032;2023-10-19T02:50:48;979.0005;;;15.25;67.28711
80911;BME280;70359;51.420;7.032;2023-10-19T02:53:13;978.991;;;15.33;66.91211
80911;BME280;70359;51.420;7.032;2023-10-19T02:55:38;978.999;;;15.33;66.90918
80911;BME280;70359;51.420;7.032;2023-10-19T02:58:03;978.9567;;;15.32;66.7959
80911;BME280;70359;51.420;7.032;2023-10-19T03:00:29;979.0098;;;15.32;66.8623
80911;BME280;70359;51.420;7.032;2023-10-19T03:02:54;979.0193;;;15.39;66.69238
80911;BME280;70359;51.420;7.032;2023-10-19T03:05:18;979.0201;;;15.39;66.63477
80911;BME280;70359;51.420;7.032;2023-10-19T03:07:44;978.9667;;;15.34;66.90137
80911;BME280;70359;51.420;7.032;2023-10-19T03:10:09;978.9842;;;15.35;66.77832
80911;BME280;70359;51.420;7.032;2023-10-19T03:12:34;978.998;;;15.4;66.85254
80911;BME280;70359;51.420;7.032;2023-10-19T03:14:59;979.0471;;;15.41;66.87793
80911;BME280;70359;51.420;7.032;2023-10-19T03:17:24;979.0259;;;15.41;67.00293
80911;BME280;70359;51.420;7.032;2023-10-19T03:19:49;979.057;;;15.43;66.99414
80911;BME280;70359;51.420;7.032;2023-10-19T03:22:14;978.9631;;;15.43;67.13184
80911;BME280;70359;51.420;7.032;2023-10-19T03:24:39;978.96;;;15.46;67.00977
80911;BME280;70359;51.420;7.032;2023-10-19T03:27:04;978.9464;;;15.45;67.14551
80911;BME280;70359;51.420;7.032;2023-10-19T03:29:29;978.9774;;;15.49;66.93555
80911;BME280;70359;51.420;7.032;2023-10-19T03:31:54;978.9402;;;15.5;67.0166
80911;BME280;70359;51.420;7.032;2023-10-19T03:34:19;978.9226;;;15.54;67.0332
80911;BME280;70359;51.420;7.032;2023-10-19T03:36:44;978.9167;;;15.53;67.14551
80911;BME280;70359;51.420;7.032;2023-10-19T03:39:09;978.9109;;;15.55;67.1377
80911;BME280;70359;51.420;7.032;2023-10-19T03:41:34;978.8856;;;15.56;67.1748
80911;BME280;70359;51.420;7.032;2023-10-19T03:43:59;978.8274;;;15.59;67.09863
80911;BME280;70359;51.420;7.032;2023-10-19T03:46:24;978.8269;;;15.6;67.08789
80911;BME280;70359;51.420;7.032;2023-10-19T03:48:49;978.6521;;;15.6;66.87207
80911;BME280;70359;51.420;7.032;2023-10-19T03:51:14;978.7951;;;15.54;66.9541
80911;BME280;70359;51.420;7.032;2023-10-19T03:53:39;978.843;;;15.65;66.54688
80911;BME280;70359;51.420;7.032;2023-10-19T03:56:04;978.8248;;;15.62;66.69141
80911;BME280;70359;51.420;7.032;2023-10-19T03:58:29;978.784;;;15.69;66.46289
80911;BME280;70359;51.420;7.032;2023-10-19T04:00:54;978.753;;;15.65;66.62695
80911;BME280;70359;51.420;7.032;2023-10-19T04:03:19;978.7597;;;15.7;66.38379
80911;BME280;70359;51.420;7.032;2023-10-19T04:05:44;978.7494;;;15.66;66.50293
80911;BME280;70359;51.420;7.032;2023-10-19T04:08:09;978.7114;;;15.7;66.28125
80911;BME280;70359;51.420;7.032;2023-10-19T04:10:34;978.6997;;;15.65;66.26172
80911;BME280;70359;51.420;7.032;2023-10-19T04:12:59;978.687;;;15.69;65.88086
80911;BME280;70359;51.420;7.032;2023-10-19T04:15:24;978.6847;;;15.64;66.02148
80911;BME280;70359;51.420;7.032;2023-10-19T04:17:49;978.632;;;15.68;65.94727
80911;BME280;70359;51.420;7.032;2023-10-19T04:20:14;978.6677;;;15.73;65.69043
80911;BME280;70359;51.420;7.032;2023-10-19T04:22:39;978.6533;;;15.73;65.82813
80911;BME280;70359;51.420;7.032;2023-10-19T04:25:04;978.5592;;;15.75;65.77344
80911;BME280;70359;51.420;7.032;2023-10-19T04:27:29;978.5161;;;15.71;65.96289
80911;BME280;70359;51.420;7.032;2023-10-19T04:29:54;978.4984;;;15.76;65.86621
80911;BME280;70359;51.420;7.032;2023-10-19T04:32:19;978.4877;;;15.71;65.97363
80911;BME280;70359;51.420;7.032;2023-10-19T04:34:44;978.5162;;;15.74;65.72754
80911;BME280;70359;51.420;7.032;2023-10-19T04:37:09;978.5453;;;15.71;65.95215
80911;BME280;70359;51.420;7.032;2023-10-19T04:39:34;978.5657;;;15.74;65.88672
80911;BME280;70359;51.420;7.032;2023-10-19T04:41:59;978.5658;;;15.72;66.04395
80911;BME280;70359;51.420;7.032;2023-10-19T04:44:24;978.5818;;;15.74;65.96777
80911;BME280;70359;51.420;7.032;2023-10-19T04:46:49;978.6284;;;15.74;66.06934
80911;BME280;70359;51.420;7.032;2023-10-19T04:49:14;978.551;;;15.75;65.97949
80911;BME280;70359;51.420;7.032;2023-10-19T04:51:39;978.5326;;;15.75;66.01367
80911;BME280;70359;51.420;7.032;2023-10-19T04:54:04;978.5174;;;15.77;65.81152
80911;BME280;70359;51.420;7.032;2023-10-19T04:56:29;978.5319;;;15.74;65.90918
80911;BME280;70359;51.420;7.032;2023-10-19T04:58:54;978.51;;;15.76;65.67285
80911;BME280;70359;51.420;7.032;2023-10-19T05:01:19;978.5547;;;15.72;65.98633
80911;BME280;70359;51.420;7.032;2023-10-19T05:03:44;978.5614;;;15.75;65.95605
80911;BME280;70359;51.420;7.032;2023-10-19T05:06:09;978.5144;;;15.71;66.24805
80911;BME280;70359;51.420;7.032;2023-10-19T05:08:34;978.5323;;;15.74;66.05762
80911;BME280;70359;51.420;7.032;2023-10-19T05:10:59;978.5427;;;15.73;66.27344
80911;BME280;70359;51.420;7.032;2023-10-19T05:13:24;978.5742;;;15.77;66.0166
80911;BME280;70359;51.420;7.032;2023-10-19T05:15:49;978.5795;;;15.74;66.03613
80911;BME280;70359;51.420;7.032;2023-10-19T05:18:14;978.5984;;;15.81;65.63379
80911;BME280;70359;51.420;7.032;2023-10-19T05:20:39;978.6956;;;15.76;65.83203
80911;BME280;70359;51.420;7.032;2023-10-19T05:23:04;978.6774;;;15.79;65.72461
80911;BME280;70359;51.420;7.032;2023-10-19T05:25:29;978.6264;;;15.77;65.92578
80911;BME280;70359;51.420;7.032;2023-10-19T05:27:54;978.6275;;;15.77;65.69727
80911;BME280;70359;51.420;7.032;2023-10-19T05:30:21;978.5948;;;15.8;65.67871
80911;BME280;70359;51.420;7.032;2023-10-19T05:32:44;978.6119;;;15.77;65.66309
80911;BME280;70359;51.420;7.032;2023-10-19T05:35:09;978.6344;;;15.78;65.6416
80911;BME280;70359;51.420;7.032;2023-10-19T05:37:34;978.5784;;;15.79;65.58594
80911;BME280;70359;51.420;7.032;2023-10-19T05:39:59;978.644;;;15.79;65.50586
80911;BME280;70359;51.420;7.032;2023-10-19T05:42:24;978.5865;;;15.78;65.46973
80911;BME280;70359;51.420;7.032;2023-10-19T05:44:49;978.6228;;;15.81;65.31445
80911;BME280;70359;51.420;7.032;2023-10-19T05:47:14;978.6544;;;15.78;65.52734
80911;BME280;70359;51.420;7.032;2023-10-19T05:49:39;978.6206;;;15.81;65.55371
80911;BME280;70359;51.420;7.032;2023-10-19T05:52:04;978.645;;;15.76;65.60449
80911;BME280;70359;51.420;7.032;2023-10-19T05:54:29;978.688;;;15.79;65.3916
80911;BME280;70359;51.420;7.032;2023-10-19T05:56:54;978.6923;;;15.74;65.66895
80911;BME280;70359;51.420;7.032;2023-10-19T05:59:19;978.715;;;15.76;65.55859
80911;BME280;70359;51.420;7.032;2023-10-19T06:01:44;978.736;;;15.73;65.55371
80911;BME280;70359;51.420;7.032;2023-10-19T06:04:09;978.7519;;;15.74;65.57813
80911;BME280;70359;51.420;7.032;2023-10-19T06:06:34;978.8292;;;15.7;65.7207
80911;BME280;70359;51.420;7.032;2023-10-19T06:08:59;978.8437;;;15.75;65.51074
80911;BME280;70359;51.420;7.032;2023-10-19T06:11:24;978.808;;;15.74;65.625
80911;BME280;70359;51.420;7.032;2023-10-19T06:13:49;978.8684;;;15.76;65.53516
80911;BME280;70359;51.420;7.032;2023-10-19T06:16:14;978.9144;;;15.73;65.80566
80911;BME280;70359;51.420;7.032;2023-10-19T06:18:39;978.9124;;;15.74;65.64648
80911;BME280;70359;51.420;7.032;2023-10-19T06:21:04;978.889;;;15.72;65.90625
80911;BME280;70359;51.420;7.032;2023-10-19T06:23:29;978.9462;;;15.74;65.77344
80911;BME280;70359;51.420;7.032;2023-10-19T06:25:54;978.9511;;;15.71;66.04297
80911;BME280;70359;51.420;7.032;2023-10-19T06:28:19;978.9846;;;15.76;65.71875
80911;BME280;70359;51.420;7.032;2023-10-19T06:30:44;979.0005;;;15.71;66.08789
80911;BME280;70359;51.420;7.032;2023-10-19T06:33:09;978.9963;;;15.74;65.91113
80911;BME280;70359;51.420;7.032;2023-10-19T06:35:34;979.0009;;;15.7;66.23535
80911;BME280;70359;51.420;7.032;2023-10-19T06:37:59;979.0316;;;15.73;65.9541
80911;BME280;70359;51.420;7.032;2023-10-19T06:40:24;979.0507;;;15.74;66.0127
80911;BME280;70359;51.420;7.032;2023-10-19T06:42:49;979.0893;;;15.75;65.97949
80911;BME280;70359;51.420;7.032;2023-10-19T06:45:14;979.0709;;;15.75;65.94531
80911;BME280;70359;51.420;7.032;2023-10-19T06:47:39;979.1117;;;15.76;65.89063
80911;BME280;70359;51.420;7.032;2023-10-19T06:50:04;979.1616;;;15.8;65.87305
80911;BME280;70359;51.420;7.032;2023-10-19T06:52:29;979.1827;;;15.8;65.97559
80911;BME280;70359;51.420;7.032;2023-10-19T06:54:54;979.1642;;;15.82;65.99121
80911;BME280;70359;51.420;7.032;2023-10-19T06:57:19;979.2339;;;15.84;65.91309
80911;BME280;70359;51.420;7.032;2023-10-19T06:59:44;979.202;;;15.9;65.70508
80911;BME280;70359;51.420;7.032;2023-10-19T07:02:09;979.223;;;15.88;65.87402
80911;BME280;70359;51.420;7.032;2023-10-19T07:04:34;979.2797;;;15.92;65.81055
80911;BME280;70359;51.420;7.032;2023-10-19T07:06:59;979.228;;;15.87;65.88379
80911;BME280;70359;51.420;7.032;2023-10-19T07:09:24;979.2897;;;15.92;65.78711
80911;BME280;70359;51.420;7.032;2023-10-19T07:11:49;979.2704;;;15.88;65.99902
80911;BME280;70359;51.420;7.032;2023-10-19T07:14:14;979.2206;;;15.91;65.78613
80911;BME280;70359;51.420;7.032;2023-10-19T07:16:39;979.2079;;;15.88;66.13672
80911;BME280;70359;51.420;7.032;2023-10-19T07:19:04;979.2511;;;15.92;66.04004
80911;BME280;70359;51.420;7.032;2023-10-19T07:21:29;979.2529;;;15.89;66.27539
80911;BME280;70359;51.420;7.032;2023-10-19T07:23:54;979.2158;;;15.91;66.15332
80911;BME280;70359;51.420;7.032;2023-10-19T07:26:19;979.2545;;;15.89;66.49219
80911;BME280;70359;51.420;7.032;2023-10-19T07:28:44;979.2795;;;15.98;66.11719
80911;BME280;70359;51.420;7.032;2023-10-19T07:31:09;979.2609;;;15.94;66.19141
80911;BME280;70359;51.420;7.032;2023-10-19T07:33:34;979.3449;;;16;65.94922
80911;BME280;70359;51.420;7.032;2023-10-19T07:35:59;979.3244;;;15.95;66.2959
80911;BME280;70359;51.420;7.032;2023-10-19T07:38:25;979.3228;;;16.05;65.86426
80911;BME280;70359;51.420;7.032;2023-10-19T07:40:49;979.3273;;;16.01;66.0752
80911;BME280;70359;51.420;7.032;2023-10-19T07:43:14;979.3845;;;16.05;65.97852
80911;BME280;70359;51.420;7.032;2023-10-19T07:45:39;979.3657;;;16.03;66.13477
80911;BME280;70359;51.420;7.032;2023-10-19T07:48:04;979.3557;;;16.08;65.93848
80911;BME280;70359;51.420;7.032;2023-10-19T07:50:29;979.3361;;;16.06;66.10645
80911;BME280;70359;51.420;7.032;2023-10-19T07:52:54;979.3684;;;16.09;66.01855
80911;BME280;70359;51.420;7.032;2023-10-19T07:55:22;979.367;;;16.09;66.00879
80911;BME280;70359;51.420;7.032;2023-10-19T07:57:44;979.391;;;16.13;65.95508
80911;BME280;70359;51.420;7.032;2023-10-19T08:00:10;979.2885;;;16.14;66.02539
80911;BME280;70359;51.420;7.032;2023-10-19T08:02:34;979.2839;;;16.15;66.0166
80911;BME280;70359;51.420;7.032;2023-10-19T08:04:59;979.2869;;;16.16;65.9834
80911;BME280;70359;51.420;7.032;2023-10-19T08:07:24;979.2889;;;16.15;66.11914
80911;BME280;70359;51.420;7.032;2023-10-19T08:09:49;979.2946;;;16.17;66.22559
80911;BME280;70359;51.420;7.032;2023-10-19T08:12:14;979.3134;;;16.14;66.42578
80911;BME280;70359;51.420;7.032;2023-10-19T08:14:39;979.2787;;;16.18;66.26172
80911;BME280;70359;51.420;7.032;2023-10-19T08:17:04;979.2972;;;16.15;66.45117
80911;BME280;70359;51.420;7.032;2023-10-19T08:19:30;979.2365;;;16.18;66.56934
80911;BME280;70359;51.420;7.032;2023-10-19T08:21:54;979.247;;;16.17;66.44238
80911;BME280;70359;51.420;7.032;2023-10-19T08:24:19;979.2433;;;16.24;66.21289
80911;BME280;70359;51.420;7.032;2023-10-19T08:26:46;979.2604;;;16.23;66.41797
80911;BME280;70359;51.420;7.032;2023-10-19T08:29:09;979.3524;;;16.29;66.19824
80911;BME280;70359;51.420;7.032;2023-10-19T08:31:34;979.3455;;;16.28;66.32129
80911;BME280;70359;51.420;7.032;2023-10-19T08:33:59;979.3127;;;16.31;66.33789
80911;BME280;70359;51.420;7.032;2023-10-19T08:36:24;979.25;;;16.34;66.33105
80911;BME280;70359;51.420;7.032;2023-10-19T08:38:49;979.1997;;;16.38;66.22266
80911;BME280;70359;51.420;7.032;2023-10-19T08:41:14;979.1902;;;16.36;66.34473
80911;BME280;70359;51.420;7.032;2023-10-19T08:43:39;979.2378;;;16.42;66.33105
80911;BME280;70359;51.420;7.032;2023-10-19T08:46:04;979.2012;;;16.44;66.3916
80911;BME280;70359;51.420;7.032;2023-10-19T08:48:38;979.1652;;;16.48;66.11035
80911;BME280;70359;51.420;7.032;2023-10-19T08:50:54;979.1981;;;16.45;66.24414
80911;BME280;70359;51.420;7.032;2023-10-19T08:53:19;979.18;;;16.5;66.11328
80911;BME280;70359;51.420;7.032;2023-10-19T08:55:54;979.1509;;;16.54;66.07422
80911;BME280;70359;51.420;7.032;2023-10-19T08:58:09;979.1015;;;16.55;66.09863
80911;BME280;70359;51.420;7.032;2023-10-19T09:00:46;979.1328;;;16.58;66.10254
80911;BME280;70359;51.420;7.032;2023-10-19T09:02:59;979.1311;;;16.64;66.08984
80911;BME280;70359;51.420;7.032;2023-10-19T09:05:24;979.1459;;;16.65;66.26172
80911;BME280;70359;51.420;7.032;2023-10-19T09:07:49;979.0545;;;16.7;66.08691
80911;BME280;70359;51.420;7.032;2023-10-19T09:10:14;979.0586;;;16.75;65.77344
80911;BME280;70359;51.420;7.032;2023-10-19T09:12:39;979.0185;;;16.71;65.76758
80911;BME280;70359;51.420;7.032;2023-10-19T09:15:05;979.0699;;;16.75;65.49902
80911;BME280;70359;51.420;7.032;2023-10-19T09:17:32;979.0438;;;16.76;65.81934
80911;BME280;70359;51.420;7.032;2023-10-19T09:19:54;979.0359;;;16.79;65.84668
80911;BME280;70359;51.420;7.032;2023-10-19T09:22:19;979.0003;;;16.79;66.13477
80911;BME280;70359;51.420;7.032;2023-10-19T09:24:44;979.008;;;16.87;65.50586
80911;BME280;70359;51.420;7.032;2023-10-19T09:27:09;979.0209;;;16.85;65.51367
80911;BME280;70359;51.420;7.032;2023-10-19T09:29:34;979.0039;;;16.92;65.47852
80911;BME280;70359;51.420;7.032;2023-10-19T09:31:59;979.0481;;;16.9;65.77344
80911;BME280;70359;51.420;7.032;2023-10-19T09:34:24;979.008;;;16.97;66.00098
80911;BME280;70359;51.420;7.032;2023-10-19T09:36:49;978.9456;;;16.95;66.14648
80911;BME280;70359;51.420;7.032;2023-10-19T09:39:14;978.8553;;;16.99;65.8877
80911;BME280;70359;51.420;7.032;2023-10-19T09:41:39;978.8572;;;16.99;66.18652
80911;BME280;70359;51.420;7.032;2023-10-19T09:44:05;978.8313;;;17.08;65.19141
80911;BME280;70359;51.420;7.032;2023-10-19T09:46:31;978.8655;;;17.06;64.82129
80911;BME280;70359;51.420;7.032;2023-10-19T09:48:54;978.8279;;;17.1;64.79395
80911;BME280;70359;51.420;7.032;2023-10-19T09:51:20;978.8729;;;17.1;65.0332
80911;BME280;70359;51.420;7.032;2023-10-19T09:53:45;978.8084;;;17.14;65.01563
80911;BME280;70359;51.420;7.032;2023-10-19T09:56:10;978.7751;;;17.14;65.24512
80911;BME280;70359;51.420;7.032;2023-10-19T09:58:35;978.7872;;;17.2;64.94531
80911;BME280;70359;51.420;7.032;2023-10-19T10:00:59;978.8318;;;17.2;64.88867
80911;BME280;70359;51.420;7.032;2023-10-19T10:05:50;978.8583;;;17.25;64.21777
80911;BME280;70359;51.420;7.032;2023-10-19T10:10:39;978.868;;;17.28;64.34766
80911;BME280;70359;51.420;7.032;2023-10-19T10:17:54;978.7455;;;17.38;64.73145
80911;BME280;70359;51.420;7.032;2023-10-19T10:20:35;978.6716;;;17.44;64.57813
80911;BME280;70359;51.420;7.032;2023-10-19T10:22:45;978.6826;;;17.5;64.47266
80911;BME280;70359;51.420;7.032;2023-10-19T10:25:10;978.7006;;;17.56;64.06641
80911;BME280;70359;51.420;7.032;2023-10-19T10:27:34;978.6958;;;17.61;64.33887
80911;BME280;70359;51.420;7.032;2023-10-19T10:30:00;978.7319;;;17.64;63.44629
80911;BME280;70359;51.420;7.032;2023-10-19T10:34:50;978.7072;;;17.75;62.7959
80911;BME280;70359;51.420;7.032;2023-10-19T10:37:15;978.6667;;;17.72;63.19531
80911;BME280;70359;51.420;7.032;2023-10-19T10:39:43;978.6428;;;17.84;63.33691
80911;BME280;70359;51.420;7.032;2023-10-19T10:42:05;978.6255;;;17.83;63.37109
80911;BME280;70359;51.420;7.032;2023-10-19T10:44:39;978.5675;;;17.96;61.71094
80911;BME280;70359;51.420;7.032;2023-10-19T10:46:55;978.5308;;;17.93;61.83301
80911;BME280;70359;51.420;7.032;2023-10-19T10:49:20;978.5552;;;18;60.99219
80911;BME280;70359;51.420;7.032;2023-10-19T10:51:45;978.5458;;;18.01;61.30273
80911;BME280;70359;51.420;7.032;2023-10-19T10:54:10;978.5168;;;18.09;62.37207
80911;BME280;70359;51.420;7.032;2023-10-19T10:56:39;978.5198;;;18.08;61.57715
80911;BME280;70359;51.420;7.032;2023-10-19T10:59:00;978.525;;;18.13;61.33105
80911;BME280;70359;51.420;7.032;2023-10-19T11:01:34;978.4631;;;18.11;60.83398
80911;BME280;70359;51.420;7.032;2023-10-19T11:03:50;978.4838;;;18.13;59.65039
80911;BME280;70359;51.420;7.032;2023-10-19T11:06:15;978.5131;;;18.12;60.38477
80911;BME280;70359;51.420;7.032;2023-10-19T11:08:40;978.5355;;;18.14;60.33105
80911;BME280;70359;51.420;7.032;2023-10-19T11:11:08;978.4995;;;18.14;60.72168
80911;BME280;70359;51.420;7.032;2023-10-19T11:13:30;978.5193;;;18.17;61.08301
80911;BME280;70359;51.420;7.032;2023-10-19T11:15:55;978.5129;;;18.15;61.64453
80911;BME280;70359;51.420;7.032;2023-10-19T11:20:45;978.5844;;;18.17;60.96973
80911;BME280;70359;51.420;7.032;2023-10-19T11:23:10;978.5153;;;18.19;60.82031
80911;BME280;70359;51.420;7.032;2023-10-19T11:25:35;978.41;;;18.19;60.71875
80911;BME280;70359;51.420;7.032;2023-10-19T11:28:00;978.3892;;;18.18;61.22363
80911;BME280;70359;51.420;7.032;2023-10-19T11:30:28;978.4108;;;18.18;62.36133
80911;BME280;70359;51.420;7.032;2023-10-19T11:32:50;978.3801;;;18.18;62.37402
80911;BME280;70359;51.420;7.032;2023-10-19T11:35:15;978.2569;;;18.19;61.74121
80911;BME280;70359;51.420;7.032;2023-10-19T11:37:49;978.2061;;;18.18;61.13184
80911;BME280;70359;51.420;7.032;2023-10-19T11:40:05;978.1325;;;18.22;60.92773
80911;BME280;70359;51.420;7.032;2023-10-19T11:42:30;978.0912;;;18.18;61.64844
80911;BME280;70359;51.420;7.032;2023-10-19T11:44:55;978.0977;;;18.2;61.08691
80911;BME280;70359;51.420;7.032;2023-10-19T11:47:20;978.1272;;;18.16;60.9668
80911;BME280;70359;51.420;7.032;2023-10-19T11:49:45;978.0514;;;18.21;61.03125
80911;BME280;70359;51.420;7.032;2023-10-19T11:52:10;978.0012;;;18.16;60.9209
80911;BME280;70359;51.420;7.032;2023-10-19T11:54:35;977.9077;;;18.22;60.66504
80911;BME280;70359;51.420;7.032;2023-10-19T11:57:00;977.8784;;;18.2;61.05273
80911;BME280;70359;51.420;7.032;2023-10-19T11:59:25;977.9592;;;18.2;61.05273
80911;BME280;70359;51.420;7.032;2023-10-19T12:01:50;977.9567;;;18.13;60.76758
80911;BME280;70359;51.420;7.032;2023-10-19T12:04:15;977.9288;;;18.22;60.47949
80911;BME280;70359;51.420;7.032;2023-10-19T12:06:40;977.8517;;;18.2;60.9375
80911;BME280;70359;51.420;7.032;2023-10-19T12:09:05;977.8092;;;18.24;61.07031
80911;BME280;70359;51.420;7.032;2023-10-19T12:11:30;977.8536;;;18.22;61.6875
80911;BME280;70359;51.420;7.032;2023-10-19T12:13:55;977.8367;;;18.28;61.38574
80911;BME280;70359;51.420;7.032;2023-10-19T12:16:20;977.8113;;;18.27;61.2002
80911;BME280;70359;51.420;7.032;2023-10-19T12:18:45;977.8624;;;18.27;61.08594
80911;BME280;70359;51.420;7.032;2023-10-19T12:21:10;977.873;;;18.28;61.16797
80911;BME280;70359;51.420;7.032;2023-10-19T12:23:35;977.8367;;;18.28;61.41992
80911;BME280;70359;51.420;7.032;2023-10-19T12:26:01;977.8112;;;18.29;61.08887
80911;BME280;70359;51.420;7.032;2023-10-19T12:28:25;977.8169;;;18.32;61.54004
80911;BME280;70359;51.420;7.032;2023-10-19T12:30:50;977.8359;;;18.31;61.21777
80911;BME280;70359;51.420;7.032;2023-10-19T12:33:15;977.853;;;18.31;61.33203
80911;BME280;70359;51.420;7.032;2023-10-19T12:35:40;977.9202;;;18.31;61.5752
80911;BME280;70359;51.420;7.032;2023-10-19T12:38:05;977.9777;;;18.31;61.91992